Time;durP1;ratioP1;P1;durP2;ratioP2;P2;SDS_P1;SDS_P2;PMS_P1;PMS_P2;Temp;Humidity;BMP_temperature;BMP_pressure;BME280_temperature;BME280_humidity;BME280_pressure;Samples;Min_cycle;Max_cycle;Signal;HPM_P1;HPM_P2
2022/08/01 02:47:01;;;;;;;;;;;;;;;23.35;100.00;98274.16;5173086;23;19930;-82
2022/08/01 02:49:31;;;;;;;;;;;;;;;23.21;100.00;98265.47;4976636;28;19933;-82
2022/08/01 02:51:59;;;;;;;;;;;;;;;23.09;100.00;98267.28;4976042;28;19926;-83
2022/08/01 02:54:28;;;;;;;;;;;;;;;23.05;100.00;98269.53;4950066;28;19931;-83
2022/08/01 02:56:56;;;;;;;;;;;;;;;22.95;100.00;98270.84;4963427;28;20303;-83
2022/08/01 02:59:25;;;;;;;;;;;;;;;22.93;100.00;98266.91;4949614;28;19942;-83
2022/08/01 03:01:55;;;;;;;;;;;;;;;22.97;100.00;98271.16;4976745;28;19926;-83
2022/08/01 03:04:23;;;;;;;;;;;;;;;22.99;100.00;98277.16;4965423;28;19933;-82
2022/08/01 03:06:52;;;;;;;;;;;;;;;23.07;100.00;98269.84;4970725;28;19930;-80
2022/08/01 03:09:19;;;;;;;;;;;;;;;23.10;100.00;98279.50;4974255;28;19930;-81
2022/08/01 03:11:47;;;;;;;;;;;;;;;23.27;100.00;98283.53;4970372;28;19938;-80
2022/08/01 03:14:15;;;;;;;;;;;;;;;23.37;100.00;98283.03;4975436;28;19937;-80
2022/08/01 03:16:45;;;;;;;;;;;;;;;23.44;100.00;98284.72;4964358;28;19934;-81
2022/08/01 03:19:13;;;;;;;;;;;;;;;23.40;100.00;98279.19;4957694;28;19938;-81
2022/08/01 03:21:42;;;;;;;;;;;;;;;23.34;100.00;98281.13;4965012;28;19926;-81
2022/08/01 03:24:11;;;;;;;;;;;;;;;23.48;100.00;98283.28;4965504;28;19939;-81
2022/08/01 03:26:39;;;;;;;;;;;;;;;23.39;100.00;98283.34;4975926;28;19926;-81
2022/08/01 03:29:09;;;;;;;;;;;;;;;23.37;100.00;98279.38;4955988;28;19934;-81
2022/08/01 03:31:38;;;;;;;;;;;;;;;23.30;100.00;98282.56;4959233;28;19930;-81
2022/08/01 03:34:06;;;;;;;;;;;;;;;23.25;100.00;98283.22;4958777;29;19930;-81
2022/08/01 03:36:36;;;;;;;;;;;;;;;23.25;100.00;98280.38;4959616;29;19937;-80
2022/08/01 03:39:06;;;;;;;;;;;;;;;23.27;100.00;98283.53;4959677;29;20219;-81
2022/08/01 03:41:36;;;;;;;;;;;;;;;23.36;100.00;98284.31;4956258;28;20220;-80
2022/08/01 03:44:07;;;;;;;;;;;;;;;23.43;100.00;98283.13;4964984;28;20222;-81
2022/08/01 03:46:40;;;;;;;;;;;;;;;23.57;99.11;98293.06;4968089;28;19931;-81
2022/08/01 03:49:10;;;;;;;;;;;;;;;23.49;100.00;98292.63;4964814;28;20331;-81
2022/08/01 03:51:38;;;;;;;;;;;;;;;23.37;100.00;98288.75;4964994;28;20231;-81
2022/08/01 03:54:06;;;;;;;;;;;;;;;23.26;100.00;98291.28;4964039;28;20308;-81
2022/08/01 03:56:34;;;;;;;;;;;;;;;23.14;100.00;98291.50;4964870;28;19937;-81
2022/08/01 03:59:03;;;;;;;;;;;;;;;22.98;100.00;98291.91;4970242;28;19933;-81
2022/08/01 04:01:32;;;;;;;;;;;;;;;22.85;100.00;98280.72;4959993;28;20004;-81
2022/08/01 04:04:00;;;;;;;;;;;;;;;22.77;100.00;98293.72;4962552;28;19934;-82
2022/08/01 04:06:27;;;;;;;;;;;;;;;22.72;100.00;98289.47;4963008;28;19926;-81
2022/08/01 04:08:57;;;;;;;;;;;;;;;22.72;100.00;98291.50;4958973;28;19934;-80
2022/08/01 04:11:25;;;;;;;;;;;;;;;22.65;100.00;98292.66;4961472;28;20306;-82
2022/08/01 04:13:53;;;;;;;;;;;;;;;22.63;100.00;98294.41;4968833;28;19933;-81
2022/08/01 04:16:21;;;;;;;;;;;;;;;22.60;100.00;98296.13;4973830;28;19937;-81
2022/08/01 04:18:48;;;;;;;;;;;;;;;22.60;100.00;98301.81;4961850;28;20223;-81
2022/08/01 04:21:17;;;;;;;;;;;;;;;22.65;100.00;98306.91;4971224;28;19961;-81
2022/08/01 04:23:45;;;;;;;;;;;;;;;22.65;100.00;98306.09;4978663;28;19930;-81
2022/08/01 04:26:14;;;;;;;;;;;;;;;22.73;100.00;98313.84;4961117;28;20315;-80
2022/08/01 04:28:42;;;;;;;;;;;;;;;22.75;100.00;98308.47;4978489;28;19937;-81
2022/08/01 04:31:11;;;;;;;;;;;;;;;22.82;100.00;98310.19;4962726;28;19937;-82
2022/08/01 04:33:40;;;;;;;;;;;;;;;22.83;100.00;98321.13;4968996;28;19926;-82
2022/08/01 04:36:10;;;;;;;;;;;;;;;22.83;100.00;98306.84;4973888;28;19926;-81
2022/08/01 04:38:38;;;;;;;;;;;;;;;23.10;100.00;98314.53;4978446;28;20303;-81
2022/08/01 04:41:06;;;;;;;;;;;;;;;23.15;100.00;98310.22;4977656;28;19937;-81
2022/08/01 04:43:34;;;;;;;;;;;;;;;23.44;100.00;98311.22;4970812;28;20311;-82
2022/08/01 04:46:03;;;;;;;;;;;;;;;23.72;100.00;98311.06;4964024;28;20341;-82
2022/08/01 04:48:32;;;;;;;;;;;;;;;24.04;100.00;98313.81;4959773;28;19934;-82
2022/08/01 04:50:59;;;;;;;;;;;;;;;24.41;100.00;98319.22;4958583;28;19934;-83
2022/08/01 04:53:27;;;;;;;;;;;;;;;24.80;100.00;98321.56;4963933;28;19926;-81
2022/08/01 04:55:55;;;;;;;;;;;;;;;25.03;99.71;98325.59;4973112;28;20498;-82
2022/08/01 04:58:22;;;;;;;;;;;;;;;25.37;96.29;98324.84;4966980;28;19934;-82
2022/08/01 05:00:49;;;;;;;;;;;;;;;26.05;90.32;98335.97;4972065;28;19934;-81
2022/08/01 05:03:17;;;;;;;;;;;;;;;26.21;91.07;98338.31;4965785;28;19927;-84
2022/08/01 05:05:44;;;;;;;;;;;;;;;26.81;87.46;98331.69;4961908;28;19937;-82
2022/08/01 05:08:11;;;;;;;;;;;;;;;27.12;88.43;98339.56;4967162;28;19953;-83
2022/08/01 05:10:39;;;;;;;;;;;;;;;27.45;84.20;98330.44;4977743;28;20222;-83
2022/08/01 05:13:06;;;;;;;;;;;;;;;27.64;83.23;98334.47;4971979;28;19926;-84
2022/08/01 05:15:34;;;;;;;;;;;;;;;28.12;80.68;98335.31;4956355;28;19926;-83
2022/08/01 05:18:01;;;;;;;;;;;;;;;28.36;78.33;98335.66;4960119;28;19926;-83
2022/08/01 05:20:31;;;;;;;;;;;;;;;28.61;76.79;98336.81;4977455;28;20315;-83
2022/08/01 05:22:58;;;;;;;;;;;;;;;28.72;75.80;98341.78;4964447;28;19933;-84
2022/08/01 05:25:26;;;;;;;;;;;;;;;28.73;74.73;98332.66;4972820;28;19926;-82
2022/08/01 05:27:53;;;;;;;;;;;;;;;29.03;72.50;98332.94;4962219;28;20322;-82
2022/08/01 05:30:20;;;;;;;;;;;;;;;29.26;70.69;98346.88;4959071;28;20870;-84
2022/08/01 05:32:47;;;;;;;;;;;;;;;29.90;67.87;98347.88;4960904;28;19927;-84
2022/08/01 05:35:14;;;;;;;;;;;;;;;29.97;67.98;98347.31;4973737;28;20281;-83
2022/08/01 05:37:42;;;;;;;;;;;;;;;30.22;66.76;98346.19;4959487;28;19927;-85
2022/08/01 05:40:09;;;;;;;;;;;;;;;30.49;65.97;98351.06;4968595;28;19930;-85
2022/08/01 05:42:37;;;;;;;;;;;;;;;30.82;62.62;98357.97;4969977;28;19926;-85
2022/08/01 05:45:04;;;;;;;;;;;;;;;30.78;62.50;98354.59;4975884;28;20019;-85
2022/08/01 05:47:31;;;;;;;;;;;;;;;30.09;64.69;98357.50;4967658;28;19926;-84
2022/08/01 05:49:59;;;;;;;;;;;;;;;29.58;68.81;98346.59;4963249;28;19937;-84
2022/08/01 05:52:26;;;;;;;;;;;;;;;29.21;70.76;98350.53;4960126;28;19969;-83
2022/08/01 05:54:53;;;;;;;;;;;;;;;29.00;71.33;98352.03;4953309;29;19934;-84
2022/08/01 05:57:21;;;;;;;;;;;;;;;28.93;72.20;98357.56;4963971;28;19957;-84
2022/08/01 05:59:48;;;;;;;;;;;;;;;28.62;74.03;98362.19;4960113;28;19930;-85
2022/08/01 06:02:15;;;;;;;;;;;;;;;28.30;76.08;98357.06;4952102;28;19945;-83
2022/08/01 06:04:42;;;;;;;;;;;;;;;28.15;79.00;98353.59;4964084;28;19935;-84
2022/08/01 06:07:11;;;;;;;;;;;;;;;28.20;80.63;98355.72;4967271;28;19927;-83
2022/08/01 06:09:38;;;;;;;;;;;;;;;28.10;81.55;98351.50;4964490;28;19926;-83
2022/08/01 06:12:06;;;;;;;;;;;;;;;28.11;82.32;98355.94;4971010;28;19926;-84
2022/08/01 06:14:33;;;;;;;;;;;;;;;28.07;82.24;98353.31;4962276;28;19953;-83
2022/08/01 06:17:01;;;;;;;;;;;;;;;27.95;81.31;98355.28;4959788;28;19931;-83
2022/08/01 06:19:28;;;;;;;;;;;;;;;27.83;82.58;98353.66;4971146;28;20342;-83
2022/08/01 06:21:55;;;;;;;;;;;;;;;27.81;82.78;98356.28;4969166;28;20247;-83
2022/08/01 06:24:23;;;;;;;;;;;;;;;27.88;82.96;98355.78;4959527;28;19934;-83
2022/08/01 06:26:51;;;;;;;;;;;;;;;27.82;83.57;98349.22;4957181;28;19930;-84
2022/08/01 06:29:18;;;;;;;;;;;;;;;27.82;80.92;98348.44;4966955;28;19926;-83
2022/08/01 06:31:45;;;;;;;;;;;;;;;27.87;81.32;98359.19;4968525;28;20333;-84
2022/08/01 06:34:12;;;;;;;;;;;;;;;27.91;83.79;98356.84;4963431;28;19927;-83
2022/08/01 06:36:40;;;;;;;;;;;;;;;27.88;82.73;98355.00;4960571;28;19930;-84
2022/08/01 06:39:07;;;;;;;;;;;;;;;27.82;82.22;98357.06;4972515;28;19938;-83
2022/08/01 06:41:34;;;;;;;;;;;;;;;27.84;82.43;98358.13;4945048;29;19934;-83
2022/08/01 06:44:04;;;;;;;;;;;;;;;27.89;83.32;98356.56;4965386;28;19937;-87
2022/08/01 06:46:31;;;;;;;;;;;;;;;27.96;83.08;98362.63;4979035;28;19937;-72
2022/08/01 06:48:58;;;;;;;;;;;;;;;27.99;82.58;98360.81;4980231;28;19956;-74
2022/08/01 06:51:26;;;;;;;;;;;;;;;28.12;81.84;98363.28;4979502;28;19926;-73
2022/08/01 06:53:53;;;;;;;;;;;;;;;28.13;80.90;98365.63;4970317;28;19930;-72
2022/08/01 06:56:21;;;;;;;;;;;;;;;28.15;80.89;98365.09;4962744;28;19957;-72
2022/08/01 06:58:49;;;;;;;;;;;;;;;28.16;81.39;98361.72;4959489;28;20528;-72
2022/08/01 07:01:16;;;;;;;;;;;;;;;28.27;82.08;98363.88;4952009;28;19926;-72
2022/08/01 07:03:44;;;;;;;;;;;;;;;28.28;80.86;98365.44;4961317;28;19934;-72
2022/08/01 07:06:11;;;;;;;;;;;;;;;28.29;80.57;98372.75;4970286;28;19937;-71
2022/08/01 07:08:38;;;;;;;;;;;;;;;28.20;80.13;98365.13;4959835;28;19933;-72
2022/08/01 07:11:05;;;;;;;;;;;;;;;28.13;80.40;98370.56;4969344;28;19941;-72
2022/08/01 07:13:33;;;;;;;;;;;;;;;28.11;79.70;98367.44;4955150;28;19927;-72
2022/08/01 07:16:00;;;;;;;;;;;;;;;28.26;79.63;98370.91;4972083;28;19930;-72
2022/08/01 07:18:27;;;;;;;;;;;;;;;28.34;79.19;98369.13;4970388;28;19926;-72
2022/08/01 07:20:54;;;;;;;;;;;;;;;28.41;78.67;98369.41;4971405;28;19950;-72
2022/08/01 07:23:22;;;;;;;;;;;;;;;28.48;78.19;98363.16;4970248;28;19931;-72
2022/08/01 07:25:50;;;;;;;;;;;;;;;28.51;77.33;98361.34;4958295;28;20391;-72
2022/08/01 07:28:18;;;;;;;;;;;;;;;28.57;78.44;98362.13;4962034;28;20239;-71
2022/08/01 07:30:45;;;;;;;;;;;;;;;28.64;77.59;98367.41;4960152;28;19931;-71
2022/08/01 07:33:12;;;;;;;;;;;;;;;28.76;77.69;98371.88;4969389;28;20231;-72
2022/08/01 07:35:40;;;;;;;;;;;;;;;28.77;76.99;98358.28;4954297;28;19938;-71
2022/08/01 07:38:07;;;;;;;;;;;;;;;28.89;77.30;98359.88;4966284;28;20223;-72
2022/08/01 07:40:37;;;;;;;;;;;;;;;28.91;76.22;98365.91;4968123;28;19926;-72
2022/08/01 07:43:04;;;;;;;;;;;;;;;29.00;73.37;98362.78;4964567;28;19930;-73
2022/08/01 07:45:31;;;;;;;;;;;;;;;29.07;73.92;98356.53;4966095;28;19933;-73
2022/08/01 07:48:05;;;;;;;;;;;;;;;29.08;72.49;98364.63;4960159;28;20007;-73
2022/08/01 07:50:32;;;;;;;;;;;;;;;29.08;72.56;98360.94;4966982;28;19930;-72
2022/08/01 07:53:00;;;;;;;;;;;;;;;29.07;75.68;98359.41;4969122;28;19934;-72
2022/08/01 07:55:27;;;;;;;;;;;;;;;29.08;73.21;98361.75;4958633;28;19926;-73
2022/08/01 07:57:54;;;;;;;;;;;;;;;29.20;72.97;98365.44;4960675;28;19934;-72
2022/08/01 08:00:22;;;;;;;;;;;;;;;29.32;71.00;98355.50;4962036;28;19934;-72
2022/08/01 08:02:49;;;;;;;;;;;;;;;29.33;70.18;98362.03;4955617;28;19971;-72
2022/08/01 08:05:16;;;;;;;;;;;;;;;29.36;70.14;98355.25;4965657;28;20508;-72
2022/08/01 08:07:44;;;;;;;;;;;;;;;29.27;69.98;98357.06;4964873;28;19934;-72
2022/08/01 08:10:11;;;;;;;;;;;;;;;29.37;72.45;98357.59;4967991;28;19926;-73
2022/08/01 08:12:38;;;;;;;;;;;;;;;29.25;70.21;98361.78;4968962;28;19926;-74
2022/08/01 08:15:06;;;;;;;;;;;;;;;29.36;69.95;98361.78;4960953;28;19926;-72
2022/08/01 08:17:33;;;;;;;;;;;;;;;29.32;68.93;98351.84;4954257;28;19934;-71
2022/08/01 08:20:01;;;;;;;;;;;;;;;29.41;68.28;98368.88;4957019;28;19973;-71
2022/08/01 08:22:29;;;;;;;;;;;;;;;29.44;69.34;98364.94;4958589;28;19930;-72
2022/08/01 08:24:56;;;;;;;;;;;;;;;29.53;65.26;98367.53;4946409;28;19927;-72
2022/08/01 08:27:23;;;;;;;;;;;;;;;29.40;75.29;98368.06;4955291;28;20196;-72
2022/08/01 08:29:51;;;;;;;;;;;;;;;29.55;74.75;98362.03;4959623;28;20308;-72
2022/08/01 08:32:18;;;;;;;;;;;;;;;29.59;67.57;98363.34;4961765;28;19926;-72
2022/08/01 08:34:45;;;;;;;;;;;;;;;29.62;68.10;98362.28;4958959;28;20239;-72
2022/08/01 08:37:13;;;;;;;;;;;;;;;29.61;69.68;98365.72;4931185;29;19930;-72
2022/08/01 08:39:41;;;;;;;;;;;;;;;29.63;70.05;98368.84;4960937;28;20014;-71
2022/08/01 08:42:10;;;;;;;;;;;;;;;29.63;69.32;98368.84;4964529;28;19933;-72
2022/08/01 08:44:38;;;;;;;;;;;;;;;29.72;69.32;98371.44;4951513;28;19926;-72
2022/08/01 08:47:07;;;;;;;;;;;;;;;29.79;66.59;98368.06;4955301;28;19946;-74
2022/08/01 08:49:35;;;;;;;;;;;;;;;29.72;67.22;98365.69;4960326;28;19938;-72
2022/08/01 08:52:03;;;;;;;;;;;;;;;29.71;70.45;98370.66;4958239;28;19927;-71
2022/08/01 08:54:32;;;;;;;;;;;;;;;29.85;70.42;98363.09;4967191;28;19930;-72
2022/08/01 08:57:00;;;;;;;;;;;;;;;29.83;67.57;98363.59;4968358;28;19938;-72
2022/08/01 08:59:27;;;;;;;;;;;;;;;29.86;67.12;98353.91;4961179;28;19941;-71
2022/08/01 09:01:55;;;;;;;;;;;;;;;29.89;66.41;98357.81;4959753;28;20429;-70
2022/08/01 09:04:23;;;;;;;;;;;;;;;29.93;70.34;98352.59;4960458;28;19926;-72
2022/08/01 09:06:50;;;;;;;;;;;;;;;29.99;69.35;98349.66;4969964;28;19937;-71
2022/08/01 09:09:18;;;;;;;;;;;;;;;30.10;69.24;98358.31;4970953;28;19956;-71
2022/08/01 09:11:45;;;;;;;;;;;;;;;30.01;65.49;98362.25;4957036;28;19938;-72
2022/08/01 09:14:14;;;;;;;;;;;;;;;30.10;68.30;98353.31;4962675;28;19937;-71
2022/08/01 09:16:42;;;;;;;;;;;;;;;30.14;67.65;98356.72;4965549;28;19926;-77
2022/08/01 09:19:13;;;;;;;;;;;;;;;30.13;69.04;98355.13;4969155;28;19927;-71
2022/08/01 09:22:01;;;;;;;;;;;;;;;30.12;86.75;98352.78;4966872;28;19926;-70
2022/08/01 09:24:30;;;;;;;;;;;;;;;30.16;72.01;98348.31;4961576;28;19957;-72
2022/08/01 09:26:58;;;;;;;;;;;;;;;30.08;76.62;98346.50;4962859;28;19926;-72
2022/08/01 09:29:27;;;;;;;;;;;;;;;30.12;71.83;98347.81;4967683;28;20296;-72
2022/08/01 09:31:55;;;;;;;;;;;;;;;30.08;72.45;98341.50;4968509;28;19934;-72
2022/08/01 09:34:27;;;;;;;;;;;;;;;30.14;71.57;98347.25;4959698;28;19926;-72
2022/08/01 09:36:58;;;;;;;;;;;;;;;30.16;71.11;98342.53;4948512;28;20314;-76
2022/08/01 09:39:26;;;;;;;;;;;;;;;30.20;76.72;98337.25;4963806;28;19957;-72
2022/08/01 09:41:55;;;;;;;;;;;;;;;30.25;73.50;98345.13;4971392;28;19937;-71
2022/08/01 09:44:37;;;;;;;;;;;;;;;30.29;67.30;98339.06;4973334;28;19926;-72
2022/08/01 09:47:05;;;;;;;;;;;;;;;30.41;62.11;98349.28;4947782;28;19941;-72
2022/08/01 09:49:36;;;;;;;;;;;;;;;30.29;64.30;98339.88;4961302;28;19934;-72
2022/08/01 09:52:14;;;;;;;;;;;;;;;30.27;60.62;98339.63;4963932;28;19935;-72
2022/08/01 09:54:42;;;;;;;;;;;;;;;30.39;64.05;98335.41;4962145;28;20213;-72
2022/08/01 09:57:10;;;;;;;;;;;;;;;30.34;59.74;98335.41;4969463;28;20185;-72
2022/08/01 09:59:41;;;;;;;;;;;;;;;30.39;67.49;98331.72;4974278;28;19933;-72
2022/08/01 10:02:33;;;;;;;;;;;;;;;30.29;64.03;98339.06;4947147;28;20192;-72
2022/08/01 10:05:01;;;;;;;;;;;;;;;30.51;61.83;98339.78;4967481;28;20201;-72
2022/08/01 10:07:28;;;;;;;;;;;;;;;30.49;64.34;98336.63;4972908;28;19926;-72
2022/08/01 10:10:08;;;;;;;;;;;;;;;30.54;69.12;98327.16;4977051;28;19961;-73
2022/08/01 10:12:36;;;;;;;;;;;;;;;30.63;62.86;98333.94;4964841;28;19930;-72
2022/08/01 10:15:04;;;;;;;;;;;;;;;30.64;61.32;98332.66;4965441;28;20218;-72
2022/08/01 10:17:34;;;;;;;;;;;;;;;30.73;64.05;98335.19;4961261;28;20354;-72
2022/08/01 10:20:02;;;;;;;;;;;;;;;30.77;58.69;98330.72;4965503;28;20334;-72
2022/08/01 10:22:30;;;;;;;;;;;;;;;30.72;61.67;98330.72;4961559;28;19935;-72
2022/08/01 10:25:00;;;;;;;;;;;;;;;30.82;68.79;98320.44;4967841;28;20218;-72
2022/08/01 10:27:29;;;;;;;;;;;;;;;30.88;61.65;98312.53;4960359;28;19938;-72
2022/08/01 10:30:08;;;;;;;;;;;;;;;31.00;61.05;98319.81;4954360;28;19930;-72
2022/08/01 10:32:36;;;;;;;;;;;;;;;30.86;60.09;98313.06;4963772;28;19937;-72
2022/08/01 10:35:03;;;;;;;;;;;;;;;30.83;62.68;98308.38;4966995;28;20204;-72
2022/08/01 10:37:32;;;;;;;;;;;;;;;30.78;60.78;98305.50;4960549;28;20298;-72
2022/08/01 10:40:00;;;;;;;;;;;;;;;30.80;60.50;98308.66;4966034;28;19930;-72
2022/08/01 10:42:47;;;;;;;;;;;;;;;30.81;70.31;98296.53;4963524;28;19927;-72
2022/08/01 10:45:15;;;;;;;;;;;;;;;31.00;59.29;98305.38;4961133;28;19938;-71
2022/08/01 10:47:51;;;;;;;;;;;;;;;31.00;57.02;98305.38;4961479;28;19934;-71
2022/08/01 10:50:18;;;;;;;;;;;;;;;31.19;58.08;98291.84;4964501;28;19930;-71
2022/08/01 10:53:05;;;;;;;;;;;;;;;31.21;57.87;98292.06;4948447;28;19941;-71
2022/08/01 10:55:45;;;;;;;;;;;;;;;31.17;56.99;98297.38;4952835;28;19926;-71
2022/08/01 10:58:12;;;;;;;;;;;;;;;31.26;57.65;98293.34;4964722;28;19927;-71
2022/08/01 11:00:39;;;;;;;;;;;;;;;31.16;60.61;98287.91;4967770;28;19937;-70
2022/08/01 11:03:06;;;;;;;;;;;;;;;31.17;59.68;98286.59;4960015;28;19926;-70
2022/08/01 11:05:37;;;;;;;;;;;;;;;31.22;58.04;98282.09;4959681;28;19927;-71
2022/08/01 11:08:09;;;;;;;;;;;;;;;31.39;54.09;98279.03;4964887;28;19938;-72
2022/08/01 11:10:38;;;;;;;;;;;;;;;31.44;57.38;98273.25;4966549;28;19933;-72
2022/08/01 11:13:08;;;;;;;;;;;;;;;31.43;59.21;98268.75;4967674;28;19930;-71
2022/08/01 11:15:35;;;;;;;;;;;;;;;31.48;61.86;98270.81;4960860;28;19941;-71
2022/08/01 11:18:22;;;;;;;;;;;;;;;31.62;56.01;98266.72;4962117;28;20334;-72
2022/08/01 11:20:57;;;;;;;;;;;;;;;31.51;61.93;98266.06;4961288;28;19930;-71
2022/08/01 11:23:27;;;;;;;;;;;;;;;31.52;57.83;98262.63;4963415;28;19931;-71
2022/08/01 11:25:54;;;;;;;;;;;;;;;31.73;54.20;98249.28;4959737;28;19934;-71
2022/08/01 11:28:23;;;;;;;;;;;;;;;31.59;56.72;98246.81;4956842;28;19934;-71
2022/08/01 11:31:07;;;;;;;;;;;;;;;31.64;55.63;98243.84;4959983;28;19934;-72
2022/08/01 11:33:41;;;;;;;;;;;;;;;31.68;57.33;98237.75;4957594;28;19926;-72
2022/08/01 11:36:11;;;;;;;;;;;;;;;31.77;52.57;98237.38;4957669;28;20342;-72
2022/08/01 11:38:41;;;;;;;;;;;;;;;31.83;53.66;98233.13;4966356;28;19926;-72
2022/08/01 11:41:14;;;;;;;;;;;;;;;31.81;55.64;98221.28;4956727;28;20219;-72
2022/08/01 11:43:56;;;;;;;;;;;;;;;31.83;61.35;98221.56;4965114;28;19935;-72
2022/08/01 11:46:42;;;;;;;;;;;;;;;31.85;55.81;98218.09;4963094;28;19933;-72
2022/08/01 11:49:32;;;;;;;;;;;;;;;31.87;55.84;98215.44;4960538;28;19934;-72
2022/08/01 11:52:02;;;;;;;;;;;;;;;31.93;53.63;98218.28;4954622;28;19927;-72
2022/08/01 11:54:35;;;;;;;;;;;;;;;31.93;52.74;98210.38;4959913;28;19938;-72
2022/08/01 11:57:07;;;;;;;;;;;;;;;31.87;53.55;98211.75;4957200;28;19927;-72
2022/08/01 11:59:38;;;;;;;;;;;;;;;31.91;59.56;98203.56;4951164;28;19938;-72
2022/08/01 12:02:19;;;;;;;;;;;;;;;31.99;58.13;98205.31;4953586;28;19941;-72
2022/08/01 12:04:49;;;;;;;;;;;;;;;31.91;54.38;98201.47;4957846;28;19934;-72
2022/08/01 12:07:17;;;;;;;;;;;;;;;32.02;54.44;98204.22;4956129;28;19932;-72
2022/08/01 12:09:46;;;;;;;;;;;;;;;32.03;53.32;98193.44;4954140;28;19930;-72
2022/08/01 12:12:17;;;;;;;;;;;;;;;31.98;54.51;98194.31;4954321;28;19933;-72
2022/08/01 12:14:45;;;;;;;;;;;;;;;32.00;56.98;98195.31;4956875;28;19960;-72
2022/08/01 12:17:12;;;;;;;;;;;;;;;32.09;58.49;98191.25;4957986;28;19973;-72
2022/08/01 12:19:40;;;;;;;;;;;;;;;32.09;57.28;98185.47;4952481;28;19930;-72
2022/08/01 12:22:14;;;;;;;;;;;;;;;32.10;55.94;98182.03;4949181;29;19926;-72
2022/08/01 12:24:42;;;;;;;;;;;;;;;32.18;53.90;98176.41;4958355;28;19926;-72
2022/08/01 12:27:10;;;;;;;;;;;;;;;32.25;57.64;98179.47;4952473;28;20390;-72
2022/08/01 12:29:39;;;;;;;;;;;;;;;32.30;56.18;98174.91;4969588;28;19933;-72
2022/08/01 12:32:24;;;;;;;;;;;;;;;32.38;59.36;98178.72;4953164;28;19934;-72
2022/08/01 12:34:52;;;;;;;;;;;;;;;32.38;55.09;98173.72;4953523;28;19926;-72
2022/08/01 12:37:20;;;;;;;;;;;;;;;32.38;57.61;98170.81;4956407;28;19931;-71
2022/08/01 12:39:47;;;;;;;;;;;;;;;32.32;53.59;98173.03;4961622;28;19933;-72
2022/08/01 12:42:14;;;;;;;;;;;;;;;32.30;51.53;98172.03;4959732;28;20222;-72
2022/08/01 12:44:44;;;;;;;;;;;;;;;32.21;51.07;98167.41;4951516;28;20307;-72
2022/08/01 12:47:12;;;;;;;;;;;;;;;32.21;51.39;98161.59;4952287;28;19937;-72
2022/08/01 12:49:40;;;;;;;;;;;;;;;32.25;55.45;98165.00;4954462;28;20211;-72
2022/08/01 12:52:08;;;;;;;;;;;;;;;32.26;51.47;98160.75;4963361;28;19926;-72
2022/08/01 12:54:57;;;;;;;;;;;;;;;32.32;52.21;98158.56;4964153;28;19927;-72
2022/08/01 12:57:24;;;;;;;;;;;;;;;32.26;53.18;98159.97;4960287;28;20414;-72
2022/08/01 13:00:09;;;;;;;;;;;;;;;32.34;51.11;98158.00;4963635;28;19934;-72
2022/08/01 13:02:36;;;;;;;;;;;;;;;32.51;50.05;98146.97;4957585;28;19956;-72
2022/08/01 13:05:04;;;;;;;;;;;;;;;32.46;51.31;98148.59;4950329;28;19927;-72
2022/08/01 13:07:35;;;;;;;;;;;;;;;32.53;51.21;98147.19;4956604;28;20296;-72
2022/08/01 13:10:08;;;;;;;;;;;;;;;32.59;49.56;98145.00;4955935;28;19926;-72
2022/08/01 13:12:36;;;;;;;;;;;;;;;32.50;50.23;98156.19;4961313;28;19937;-72
2022/08/01 13:15:20;;;;;;;;;;;;;;;32.46;48.28;98151.50;4957174;28;19926;-72
2022/08/01 13:17:47;;;;;;;;;;;;;;;32.50;49.11;98150.41;4953514;28;20314;-72
2022/08/01 13:20:27;;;;;;;;;;;;;;;32.53;48.98;98141.41;4956758;28;19934;-72
2022/08/01 13:22:54;;;;;;;;;;;;;;;32.44;45.01;98144.69;4961053;28;20300;-72
2022/08/01 13:25:22;;;;;;;;;;;;;;;32.45;46.73;98137.59;4957260;28;19941;-72
2022/08/01 13:28:10;;;;;;;;;;;;;;;32.44;49.86;98130.22;4959677;28;20322;-72
2022/08/01 13:30:37;;;;;;;;;;;;;;;32.45;51.73;98126.75;4956180;28;19958;-72
2022/08/01 13:33:04;;;;;;;;;;;;;;;32.57;48.40;98136.09;4949128;28;20315;-72
2022/08/01 13:35:31;;;;;;;;;;;;;;;32.50;47.08;98133.78;4976487;28;20319;-72
2022/08/01 13:37:59;;;;;;;;;;;;;;;32.45;50.29;98132.56;4975757;28;19926;-72
2022/08/01 13:40:27;;;;;;;;;;;;;;;32.48;49.14;98130.66;4976977;28;19930;-72
2022/08/01 13:42:56;;;;;;;;;;;;;;;32.50;46.66;98127.25;4976583;28;19938;-72
2022/08/01 13:45:23;;;;;;;;;;;;;;;32.51;45.89;98132.50;4976950;28;19926;-72
2022/08/01 13:47:51;;;;;;;;;;;;;;;32.52;46.34;98128.28;4976602;28;20327;-72
2022/08/01 13:50:26;;;;;;;;;;;;;;;32.61;44.41;98119.16;4952347;28;20488;-72
2022/08/01 13:52:53;;;;;;;;;;;;;;;32.59;46.29;98118.94;4976538;28;19957;-72
2022/08/01 13:55:20;;;;;;;;;;;;;;;32.57;46.11;98121.63;4976358;28;19930;-72
2022/08/01 13:57:48;;;;;;;;;;;;;;;32.51;44.62;98123.81;4977336;28;19930;-72
2022/08/01 14:00:15;;;;;;;;;;;;;;;32.47;47.87;98112.50;4962885;28;19930;-72
2022/08/01 14:02:42;;;;;;;;;;;;;;;32.43;47.04;98125.75;4977259;28;19933;-72
2022/08/01 14:05:10;;;;;;;;;;;;;;;32.42;47.44;98116.31;4976275;28;19930;-72
2022/08/01 14:07:38;;;;;;;;;;;;;;;32.52;49.68;98118.81;4976582;28;19937;-72
2022/08/01 14:10:05;;;;;;;;;;;;;;;32.46;49.56;98122.53;4977182;28;20718;-72
2022/08/01 14:12:33;;;;;;;;;;;;;;;32.48;48.74;98119.88;4976238;28;19934;-72
2022/08/01 14:15:00;;;;;;;;;;;;;;;32.48;51.58;98122.78;4976016;28;19934;-72
2022/08/01 14:17:27;;;;;;;;;;;;;;;32.50;48.56;98116.41;4976194;28;20310;-72
2022/08/01 14:19:56;;;;;;;;;;;;;;;32.50;47.36;98116.41;4977017;28;20235;-72
2022/08/01 14:22:23;;;;;;;;;;;;;;;32.47;47.10;98117.53;4976535;28;20222;-72
2022/08/01 14:24:50;;;;;;;;;;;;;;;32.48;50.30;98113.28;4976902;28;19930;-72
2022/08/01 14:27:17;;;;;;;;;;;;;;;32.48;46.19;98114.09;4976854;28;19937;-72
2022/08/01 14:29:46;;;;;;;;;;;;;;;32.47;48.39;98111.75;4977067;28;19930;-72
2022/08/01 14:32:13;;;;;;;;;;;;;;;32.48;46.07;98110.41;4977256;28;20322;-72
2022/08/01 14:34:41;;;;;;;;;;;;;;;32.51;45.87;98120.13;4975749;28;20332;-72
2022/08/01 14:37:08;;;;;;;;;;;;;;;32.57;48.14;98109.25;4976411;28;19930;-72
2022/08/01 14:39:35;;;;;;;;;;;;;;;32.53;51.03;98106.66;4975997;28;19930;-72
2022/08/01 14:42:02;;;;;;;;;;;;;;;32.51;47.60;98105.66;4976275;28;20215;-72
2022/08/01 14:44:30;;;;;;;;;;;;;;;32.55;47.99;98095.31;4976563;28;19937;-72
2022/08/01 14:46:57;;;;;;;;;;;;;;;32.55;48.36;98095.31;4976239;28;19933;-72
2022/08/01 14:49:25;;;;;;;;;;;;;;;32.59;49.95;98107.38;4976470;28;19930;-72
2022/08/01 14:51:52;;;;;;;;;;;;;;;32.51;49.27;98100.66;4963114;28;19933;-72
2022/08/01 14:54:19;;;;;;;;;;;;;;;32.48;46.29;98099.59;4975302;28;19933;-72
2022/08/01 14:56:47;;;;;;;;;;;;;;;32.50;46.56;98096.16;4979895;28;19933;-72
2022/08/01 14:59:14;;;;;;;;;;;;;;;32.46;48.02;98093.59;4980266;28;20323;-72
2022/08/01 15:01:41;;;;;;;;;;;;;;;32.37;46.88;98094.03;4963204;28;19926;-72
2022/08/01 15:04:09;;;;;;;;;;;;;;;32.38;47.76;98092.66;4979880;28;19933;-72
2022/08/01 15:06:36;;;;;;;;;;;;;;;32.35;48.25;98093.75;4979252;28;19930;-72
2022/08/01 15:09:03;;;;;;;;;;;;;;;32.38;47.99;98089.00;4979240;28;20319;-72
2022/08/01 15:11:31;;;;;;;;;;;;;;;32.26;49.24;98097.09;4979107;28;19937;-72
2022/08/01 15:16:48;;;;;;;;;;;;;;;32.25;49.59;98088.97;4943728;28;19926;-72
2022/08/01 15:19:15;;;;;;;;;;;;;;;32.24;46.89;98088.19;4976992;28;20227;-72
2022/08/01 15:21:43;;;;;;;;;;;;;;;32.24;47.44;98093.19;4968325;28;19930;-72
2022/08/01 15:24:10;;;;;;;;;;;;;;;32.20;46.73;98087.72;4978885;28;20307;-72
2022/08/01 15:26:38;;;;;;;;;;;;;;;32.22;49.89;98087.94;4978686;28;20303;-72
2022/08/01 15:29:05;;;;;;;;;;;;;;;32.20;49.79;98086.94;4978964;28;20311;-72
2022/08/01 15:31:32;;;;;;;;;;;;;;;32.21;49.68;98080.59;4979469;28;20315;-72
2022/08/01 15:33:59;;;;;;;;;;;;;;;32.14;52.08;98086.22;4978922;28;19930;-72
2022/08/01 15:36:27;;;;;;;;;;;;;;;32.06;50.08;98083.19;4978840;28;20479;-72
2022/08/01 15:38:55;;;;;;;;;;;;;;;32.09;48.04;98092.88;4979486;28;20235;-72
2022/08/01 15:41:22;;;;;;;;;;;;;;;32.01;49.23;98086.19;4979261;28;20334;-72
2022/08/01 15:43:49;;;;;;;;;;;;;;;31.94;49.25;98081.78;4979317;28;19930;-72